Terminal Aerodrome Forecast
Issued by NWS

Home | Current Version | Previous Version | Text Only | Print | Product List | Glossary On
Versions: 1 2 3 4 5 6 7 8 9 10 11 12 13 14 15 16 17 18 19
000
FTUS44 KLIX 252336
TAFMSY
TAF
KMSY 252336Z 2600/2624 28008KT 1 1/2SM +TSRA BR SCT026CB BKN040
      OVC100
     FM260300 16006KT P6SM BKN060
     FM261400 15010KT P6SM VCSH BKN030
     FM261800 15012KT P6SM VCTS BKN040CB=

USA.gov is the U.S. government's official web portal to all federal, state and local government web resources and services.